Terminal Aerodrome Forecast
Issued by NWS Omaha/Valley, NE

Current Version | Previous Version | Text Only | Print | Product List | Glossary On
Versions: 1 2 3 4 5 6 7 8 9 10 11 12 13 14 15 16 17 18 19 20
000
FTUS43 KOAX 241120
TAFOFK
TAF
KOFK 241120Z 2412/2512 36016KT 6SM -RA OVC008
     FM241500 02018KT P6SM VCSH OVC008
     FM242000 02019G27KT 5SM RA VCTS OVC008CB
     FM242300 02018KT 3SM RA OVC008
     FM250000 01017KT 3SM -RA OVC008
     FM250600 36014KT P6SM OVC003=

USA.gov is the U.S. government's official web portal to all federal, state and local government web resources and services.